sensor_id;sensor_type;location;lat;lon;timestamp;pressure;altitude;pressure_sealevel;temperature;humidity
38026;BME280;23836;48.430;9.888;2022-08-19T00:29:51;94353.13;;;16.92;100.00
38026;BME280;23836;48.430;9.888;2022-08-19T00:34:41;94296.56;;;16.14;100.00
38026;BME280;23836;48.430;9.888;2022-08-19T00:39:31;94206.94;;;15.49;100.00
38026;BME280;23836;48.430;9.888;2022-08-19T00:44:27;94573.16;;;17.74;100.00
38026;BME280;23836;48.430;9.888;2022-08-19T00:49:37;94342.19;;;15.81;100.00
38026;BME280;23836;48.430;9.888;2022-08-19T00:54:28;94572.84;;;17.20;100.00
38026;BME280;23836;48.430;9.888;2022-08-19T00:59:21;94350.84;;;15.78;100.00
38026;BME280;23836;48.430;9.888;2022-08-19T01:04:13;94541.50;;;16.96;100.00
38026;BME280;23836;48.430;9.888;2022-08-19T01:09:03;94323.63;;;15.66;100.00
38026;BME280;23836;48.430;9.888;2022-08-19T01:14:18;94303.69;;;15.01;100.00
38026;BME280;23836;48.430;9.888;2022-08-19T01:19:36;94270.25;;;14.74;100.00
38026;BME280;23836;48.430;9.888;2022-08-19T01:24:27;94689.19;;;17.58;100.00
38026;BME280;23836;48.430;9.888;2022-08-19T01:29:17;94319.78;;;15.39;100.00
38026;BME280;23836;48.430;9.888;2022-08-19T01:34:08;94597.84;;;16.87;100.00
38026;BME280;23836;48.430;9.888;2022-08-19T01:39:00;94289.63;;;15.09;100.00
38026;BME280;23836;48.430;9.888;2022-08-19T01:43:52;94320.63;;;15.15;100.00
38026;BME280;23836;48.430;9.888;2022-08-19T01:48:44;94527.88;;;16.92;100.00
38026;BME280;23836;48.430;9.888;2022-08-19T06:23:43;94746.41;;;17.97;100.00
38026;BME280;23836;48.430;9.888;2022-08-19T07:25:20;94631.03;;;17.29;100.00
38026;BME280;23836;48.430;9.888;2022-08-19T12:39:41;94769.75;;;16.98;100.00
38026;BME280;23836;48.430;9.888;2022-08-19T12:44:32;94850.75;;;17.53;100.00
38026;BME280;23836;48.430;9.888;2022-08-19T12:49:23;94840.16;;;17.43;100.00
38026;BME280;23836;48.430;9.888;2022-08-19T12:54:13;94861.50;;;17.53;100.00
38026;BME280;23836;48.430;9.888;2022-08-19T12:59:04;94672.47;;;16.14;100.00
38026;BME280;23836;48.430;9.888;2022-08-19T13:03:56;94834.19;;;17.46;100.00
38026;BME280;23836;48.430;9.888;2022-08-19T13:08:46;94680.63;;;16.28;100.00
38026;BME280;23836;48.430;9.888;2022-08-19T13:13:39;94876.19;;;17.80;100.00
38026;BME280;23836;48.430;9.888;2022-08-19T13:18:31;94783.63;;;17.43;100.00
38026;BME280;23836;48.430;9.888;2022-08-19T13:23:22;94810.00;;;17.60;100.00
38026;BME280;23836;48.430;9.888;2022-08-19T13:28:12;94857.38;;;17.42;100.00
38026;BME280;23836;48.430;9.888;2022-08-19T13:33:03;94871.84;;;17.46;100.00
38026;BME280;23836;48.430;9.888;2022-08-19T13:38:06;94872.03;;;17.69;100.00
38026;BME280;23836;48.430;9.888;2022-08-19T13:42:56;94817.00;;;17.42;100.00
38026;BME280;23836;48.430;9.888;2022-08-19T13:47:49;94850.75;;;17.53;100.00
38026;BME280;23836;48.430;9.888;2022-08-19T13:52:40;94894.44;;;17.83;100.00
38026;BME280;23836;48.430;9.888;2022-08-19T16:08:47;94954.63;;;18.77;100.00
38026;BME280;23836;48.430;9.888;2022-08-19T16:24:46;94954.38;;;18.46;100.00
38026;BME280;23836;48.430;9.888;2022-08-19T19:31:36;94937.31;;;17.17;100.00
38026;BME280;23836;48.430;9.888;2022-08-19T19:36:28;94868.72;;;16.71;100.00
38026;BME280;23836;48.430;9.888;2022-08-19T19:41:21;95055.84;;;17.98;100.00
38026;BME280;23836;48.430;9.888;2022-08-19T19:46:15;94980.94;;;17.57;100.00
38026;BME280;23836;48.430;9.888;2022-08-19T19:51:07;94977.59;;;17.65;100.00
38026;BME280;23836;48.430;9.888;2022-08-19T23:19:42;95055.53;;;18.19;100.00
